Time;durP1;ratioP1;P1;durP2;ratioP2;P2;SDS_P1;SDS_P2;PMS_P1;PMS_P2;Temp;Humidity;BMP_temperature;BMP_pressure;BME280_temperature;BME280_humidity;BME280_pressure;Samples;Min_cycle;Max_cycle;Signal;HPM_P1;HPM_P2
2022/01/04 00:04:25;;;;;;;40.22;27.75;;;6.60;88.60;;;;;;10943707;32;20030;-69
2022/01/04 00:10:34;;;;;;;44.40;28.73;;;6.60;88.60;;;;;;10930090;32;20023;-69
2022/01/04 00:17:28;;;;;;;48.30;28.08;;;6.60;88.70;;;;;;10943418;32;20323;-69
2022/01/04 00:23:31;;;;;;;42.58;26.33;;;6.60;88.70;;;;;;10942926;32;20015;-69
2022/01/04 00:29:33;;;;;;;32.75;21.10;;;6.60;88.70;;;;;;10942909;32;20015;-69
2022/01/04 00:35:36;;;;;;;34.58;20.92;;;6.60;88.70;;;;;;10942761;32;20429;-69
2022/01/04 00:41:38;;;;;;;32.90;23.20;;;6.60;88.70;;;;;;10942527;32;20049;-69
2022/01/04 00:49:09;;;;;;;31.58;22.08;;;6.60;88.60;;;;;;10939676;32;20027;-69
2022/01/04 00:54:04;;;;;;;35.65;23.08;;;6.60;88.60;;;;;;10941970;32;20043;-69
2022/01/04 01:00:08;;;;;;;30.08;21.37;;;6.60;88.70;;;;;;10939450;32;20023;-69
2022/01/04 01:06:10;;;;;;;26.95;18.30;;;6.60;88.70;;;;;;10946530;32;20057;-69
2022/01/04 01:12:12;;;;;;;26.25;19.77;;;6.60;88.70;;;;;;10954376;32;20037;-69
2022/01/04 01:18:17;;;;;;;32.85;21.48;;;6.60;88.70;;;;;;10954128;32;20023;-69
2022/01/04 01:24:19;;;;;;;37.30;23.75;;;6.60;88.60;;;;;;10954034;32;20050;-69
2022/01/04 01:30:22;;;;;;;25.17;16.40;;;6.60;88.60;;;;;;10952055;32;20023;-69
2022/01/04 01:36:24;;;;;;;29.85;19.90;;;6.60;88.60;;;;;;10954018;32;20331;-69
2022/01/04 01:42:26;;;;;;;29.95;20.45;;;6.60;88.60;;;;;;10579446;27;12171843;-69
2022/01/04 01:48:29;;;;;;;38.20;23.73;;;6.60;88.60;;;;;;10912996;32;20042;-69
2022/01/04 01:54:31;;;;;;;33.25;22.70;;;6.60;88.60;;;;;;10912426;32;20327;-70
2022/01/04 02:00:33;;;;;;;36.80;24.85;;;6.60;88.60;;;;;;10912157;32;20364;-69
2022/01/04 02:06:36;;;;;;;28.15;18.95;;;6.60;88.50;;;;;;10911488;32;20054;-69
2022/01/04 02:12:44;;;;;;;33.95;23.10;;;6.60;88.50;;;;;;10985988;32;20026;-69
2022/01/04 02:18:46;;;;;;;27.37;20.33;;;6.60;88.60;;;;;;10986832;32;20327;-69
2022/01/04 02:24:49;;;;;;;33.38;21.25;;;6.60;88.60;;;;;;10984754;32;20026;-69
2022/01/04 02:30:51;;;;;;;25.35;16.80;;;6.60;88.60;;;;;;10984753;32;20395;-69
2022/01/04 02:36:53;;;;;;;25.48;16.90;;;6.60;88.60;;;;;;10984333;32;20022;-69
2022/01/04 02:42:56;;;;;;;25.90;16.48;;;6.60;88.60;;;;;;10984072;32;20018;-69
2022/01/04 02:48:58;;;;;;;26.00;16.02;;;6.60;88.60;;;;;;10984030;32;20396;-69
2022/01/04 02:55:05;;;;;;;24.20;14.05;;;6.60;88.50;;;;;;10983941;32;20076;-69
2022/01/04 03:01:08;;;;;;;22.37;14.57;;;6.60;88.50;;;;;;10983816;32;20105;-69
2022/01/04 03:07:10;;;;;;;25.00;18.30;;;6.50;88.50;;;;;;10983402;32;20442;-69
2022/01/04 03:13:13;;;;;;;37.60;21.67;;;6.60;88.50;;;;;;10983137;32;20319;-70
2022/01/04 03:19:16;;;;;;;30.67;19.00;;;6.50;88.50;;;;;;10982994;32;20015;-70
2022/01/04 03:25:18;;;;;;;25.42;16.20;;;6.60;88.60;;;;;;10978412;32;20023;-69
2022/01/04 03:31:20;;;;;;;26.00;19.60;;;6.60;88.50;;;;;;10982201;32;20018;-69
2022/01/04 03:37:22;;;;;;;26.55;17.17;;;6.60;88.50;;;;;;10982339;32;20339;-69
2022/01/04 03:43:25;;;;;;;28.45;18.48;;;6.60;88.50;;;;;;10982038;32;20018;-69
2022/01/04 03:49:27;;;;;;;51.03;32.15;;;6.60;88.50;;;;;;10981808;32;20045;-69
2022/01/04 03:55:30;;;;;;;46.50;30.37;;;6.60;88.40;;;;;;10977578;32;20073;-69
2022/01/04 04:01:32;;;;;;;39.58;24.33;;;6.60;88.40;;;;;;10981463;32;20031;-69
2022/01/04 04:07:34;;;;;;;26.10;17.12;;;6.60;88.50;;;;;;10981086;32;20022;-69
2022/01/04 04:13:37;;;;;;;25.67;16.83;;;6.60;88.50;;;;;;10981079;32;20019;-69
2022/01/04 04:19:39;;;;;;;25.85;17.83;;;6.60;88.50;;;;;;10980816;32;20304;-69
2022/01/04 04:25:41;;;;;;;31.33;20.65;;;6.70;88.50;;;;;;10980398;32;20049;-69
2022/01/04 04:31:43;;;;;;;22.67;15.52;;;6.60;88.50;;;;;;10980385;32;20045;-69
2022/01/04 04:37:46;;;;;;;35.03;21.42;;;6.70;88.50;;;;;;10980111;32;20019;-69
2022/01/04 04:43:53;;;;;;;53.10;30.88;;;6.70;88.40;;;;;;10979464;32;20019;-69
2022/01/04 04:49:55;;;;;;;31.30;20.50;;;6.70;88.40;;;;;;10977840;32;20027;-69
2022/01/04 04:55:57;;;;;;;41.65;25.92;;;6.70;88.40;;;;;;10979832;32;20022;-69
2022/01/04 05:01:59;;;;;;;48.20;32.45;;;6.70;88.40;;;;;;10979643;32;20413;-69
2022/01/04 05:08:02;;;;;;;29.15;17.58;;;6.70;88.40;;;;;;10979411;32;20037;-69
2022/01/04 05:14:04;;;;;;;44.75;27.62;;;6.60;88.50;;;;;;10966107;32;20015;-69
2022/01/04 05:20:07;;;;;;;25.17;17.48;;;6.60;88.50;;;;;;10978354;32;20019;-69
2022/01/04 05:26:09;;;;;;;38.65;22.37;;;6.70;88.50;;;;;;10979017;32;20331;-69
2022/01/04 05:32:11;;;;;;;20.48;14.70;;;6.70;88.50;;;;;;10965296;32;20037;-69
2022/01/04 05:38:13;;;;;;;32.95;20.40;;;6.70;88.50;;;;;;10979084;32;20296;-69
2022/01/04 05:44:15;;;;;;;39.00;26.58;;;6.70;88.50;;;;;;10978916;32;20022;-69
2022/01/04 05:50:18;;;;;;;30.45;21.33;;;6.70;88.40;;;;;;10975745;32;20041;-69
2022/01/04 05:56:20;;;;;;;22.27;15.82;;;6.70;88.40;;;;;;10972581;32;20097;-69
2022/01/04 06:02:22;;;;;;;26.70;18.08;;;6.60;88.50;;;;;;10983443;32;20026;-69
2022/01/04 06:08:27;;;;;;;24.92;18.08;;;6.70;88.50;;;;;;10985437;32;20034;-69
2022/01/04 06:20:51;;;;;;;39.53;29.15;;;6.70;88.40;;;;;;10985689;32;20081;-69
2022/01/04 06:26:53;;;;;;;23.45;17.77;;;6.70;88.50;;;;;;10984879;32;20023;-69
2022/01/04 06:32:55;;;;;;;39.47;24.35;;;6.70;88.50;;;;;;10984190;32;20026;-69
2022/01/04 06:38:58;;;;;;;35.15;25.12;;;6.70;88.50;;;;;;10984565;32;20039;-71
2022/01/04 06:45:00;;;;;;;41.03;28.23;;;6.70;88.50;;;;;;10984358;32;20081;-71
2022/01/04 06:51:02;;;;;;;32.53;26.37;;;6.60;88.50;;;;;;10981961;32;20023;-72
2022/01/04 06:57:05;;;;;;;48.95;36.63;;;6.60;88.50;;;;;;10983654;32;20023;-72
2022/01/04 07:03:07;;;;;;;49.10;31.25;;;6.70;88.50;;;;;;10982916;32;20007;-72
2022/01/04 07:09:09;;;;;;;44.70;29.10;;;6.70;88.50;;;;;;10983544;32;20041;-72
2022/01/04 07:15:12;;;;;;;56.60;36.80;;;6.70;88.50;;;;;;10983381;32;20015;-72
2022/01/04 07:21:15;;;;;;;44.05;28.70;;;6.70;88.50;;;;;;10983012;32;20033;-72
2022/01/04 07:27:17;;;;;;;59.72;35.50;;;6.60;88.50;;;;;;10968791;32;20057;-72
2022/01/04 07:33:19;;;;;;;59.83;40.83;;;6.60;88.50;;;;;;10980115;32;20019;-72
2022/01/04 07:39:22;;;;;;;52.40;35.35;;;6.60;88.60;;;;;;10979352;32;20030;-72
2022/01/04 07:45:24;;;;;;;38.67;26.12;;;6.60;88.60;;;;;;10982073;32;20395;-72
2022/01/04 07:51:27;;;;;;;42.00;28.52;;;6.70;88.60;;;;;;10957527;32;20023;-72
2022/01/04 07:57:29;;;;;;;39.95;27.58;;;6.70;88.60;;;;;;10943970;32;20038;-72
2022/01/04 08:03:31;;;;;;;53.63;38.22;;;6.70;88.60;;;;;;10943615;32;20053;-72
2022/01/04 08:09:34;;;;;;;37.60;26.25;;;6.70;88.60;;;;;;10941296;32;20023;-72
2022/01/04 08:15:36;;;;;;;46.45;32.50;;;6.70;88.60;;;;;;10942593;32;20066;-72
2022/01/04 08:21:38;;;;;;;52.10;33.42;;;6.80;88.50;;;;;;10943269;32;20422;-72
2022/01/04 08:27:41;;;;;;;43.05;27.95;;;6.80;88.50;;;;;;10943180;32;20062;-72
2022/01/04 08:33:43;;;;;;;54.42;34.53;;;6.80;88.50;;;;;;10942814;32;20429;-72
2022/01/04 08:39:46;;;;;;;42.05;30.27;;;6.80;88.50;;;;;;10942586;32;20027;-72
2022/01/04 08:45:48;;;;;;;36.78;24.65;;;6.80;88.40;;;;;;10942393;32;20324;-72
2022/01/04 08:51:51;;;;;;;43.63;25.05;;;6.80;88.50;;;;;;10942387;32;20050;-72
2022/01/04 08:57:53;;;;;;;49.15;31.52;;;6.80;88.50;;;;;;10942212;32;20018;-70
2022/01/04 09:03:56;;;;;;;49.28;31.85;;;6.80;88.50;;;;;;10941911;32;20087;-69
2022/01/04 09:09:59;;;;;;;45.20;32.67;;;6.80;88.50;;;;;;10941826;32;20011;-69
2022/01/04 09:22:05;;;;;;;61.40;39.22;;;6.90;88.60;;;;;;10941247;32;20018;-69
2022/01/04 09:28:07;;;;;;;45.35;29.58;;;6.90;88.60;;;;;;10945213;32;20031;-69
2022/01/04 09:34:10;;;;;;;106.43;71.93;;;7.00;88.60;;;;;;10948938;32;20019;-69
2022/01/04 09:40:12;;;;;;;56.88;38.00;;;6.90;88.60;;;;;;10948495;32;20331;-69
2022/01/04 09:46:15;;;;;;;63.80;46.70;;;7.00;88.60;;;;;;10980098;27;20056;-69
2022/01/04 09:52:21;;;;;;;49.70;32.22;;;7.00;88.60;;;;;;10986111;32;20015;-69
2022/01/04 09:58:25;;;;;;;43.50;29.77;;;7.00;88.60;;;;;;10986042;32;20033;-69
2022/01/04 10:04:27;;;;;;;46.70;29.70;;;7.10;88.60;;;;;;10985519;32;20034;-69
2022/01/04 10:10:30;;;;;;;61.95;40.28;;;7.00;88.60;;;;;;10981816;32;20027;-69
2022/01/04 10:16:32;;;;;;;46.88;35.25;;;7.10;88.60;;;;;;10985230;32;20041;-69
2022/01/04 10:22:36;;;;;;;44.17;28.23;;;7.10;88.60;;;;;;10984934;32;20022;-69
2022/01/04 10:28:42;;;;;;;43.35;27.15;;;7.10;88.60;;;;;;10966940;32;20026;-69
2022/01/04 10:34:50;;;;;;;45.80;30.42;;;7.10;88.60;;;;;;10984177;32;20029;-69
2022/01/04 10:41:07;;;;;;;42.67;30.05;;;7.10;88.60;;;;;;10983185;32;20057;-69
2022/01/04 10:47:10;;;;;;;38.85;27.87;;;7.20;88.60;;;;;;10983880;32;20050;-69
2022/01/04 10:53:40;;;;;;;48.67;30.33;;;7.20;88.60;;;;;;10984052;32;20019;-69
2022/01/04 10:59:43;;;;;;;48.72;35.88;;;7.30;88.60;;;;;;10981829;32;20053;-69
2022/01/04 11:05:46;;;;;;;49.03;34.25;;;7.30;88.50;;;;;;10983369;32;20045;-72
2022/01/04 11:11:48;;;;;;;58.65;42.45;;;7.40;88.50;;;;;;10952427;32;20065;-69
2022/01/04 11:17:51;;;;;;;48.97;34.88;;;7.40;88.40;;;;;;10945463;32;20173;-72
2022/01/04 11:23:55;;;;;;;55.50;39.22;;;7.40;88.40;;;;;;10945217;32;20053;-72
2022/01/04 11:30:00;;;;;;;49.25;36.70;;;7.40;88.40;;;;;;10944691;32;20050;-72
2022/01/04 11:36:02;;;;;;;46.83;35.85;;;7.40;88.40;;;;;;10943279;32;20070;-72
2022/01/04 11:42:38;;;;;;;52.08;38.13;;;7.40;88.40;;;;;;10944566;32;20049;-72
2022/01/04 11:48:42;;;;;;;52.80;37.53;;;7.50;88.40;;;;;;10944256;32;20057;-72
2022/01/04 11:54:44;;;;;;;44.20;32.33;;;7.50;88.40;;;;;;10944063;32;20031;-72
2022/01/04 12:01:03;;;;;;;58.63;38.60;;;7.50;88.40;;;;;;10943995;32;20027;-72
2022/01/04 12:07:05;;;;;;;46.17;33.25;;;7.50;88.40;;;;;;10941191;32;20255;-72
2022/01/04 12:13:14;;;;;;;50.20;34.97;;;7.50;88.40;;;;;;10943467;32;20347;-72
2022/01/04 12:19:17;;;;;;;47.30;36.00;;;7.60;88.40;;;;;;10929838;32;20046;-69
2022/01/04 12:25:19;;;;;;;60.22;46.17;;;7.50;88.40;;;;;;10925292;32;20023;-69
2022/01/04 12:31:25;;;;;;;65.78;51.08;;;7.50;88.50;;;;;;10942871;32;20019;-69
2022/01/04 12:37:27;;;;;;;63.20;48.17;;;7.50;88.50;;;;;;10938753;32;20045;-69
2022/01/04 12:43:31;;;;;;;67.55;53.03;;;7.40;88.60;;;;;;10942348;32;20041;-69
2022/01/04 12:49:35;;;;;;;76.03;49.83;;;7.50;88.70;;;;;;10942213;32;20292;-69
2022/01/04 12:55:37;;;;;;;49.85;36.85;;;7.40;88.70;;;;;;10942011;32;20027;-69
2022/01/04 13:01:40;;;;;;;63.17;44.25;;;7.40;88.80;;;;;;10941492;32;20049;-69
2022/01/04 13:07:42;;;;;;;53.00;38.65;;;7.50;88.70;;;;;;10943025;32;20285;-71
2022/01/04 13:13:55;;;;;;;74.20;47.78;;;7.50;88.70;;;;;;10941783;32;20011;-71
2022/01/04 13:19:59;;;;;;;62.62;46.13;;;7.50;88.70;;;;;;10941616;32;20024;-72
2022/01/04 13:26:01;;;;;;;45.83;31.95;;;7.40;88.70;;;;;;10941443;32;20077;-71
2022/01/04 13:32:08;;;;;;;59.33;43.97;;;7.40;88.80;;;;;;10927874;32;20053;-72
2022/01/04 13:38:17;;;;;;;52.67;36.45;;;7.40;88.90;;;;;;10941397;32;20003;-72
2022/01/04 13:44:19;;;;;;;61.55;46.85;;;7.40;88.90;;;;;;10962899;32;20419;-72
2022/01/04 13:50:31;;;;;;;41.70;32.03;;;7.40;88.80;;;;;;10978983;32;20058;-72
2022/01/04 13:56:33;;;;;;;41.92;31.35;;;7.40;88.90;;;;;;10978650;32;20421;-72
2022/01/04 14:02:35;;;;;;;43.25;30.27;;;7.50;88.90;;;;;;10978561;32;20019;-72
2022/01/04 14:08:48;;;;;;;48.15;36.88;;;7.50;88.80;;;;;;10978395;32;20027;-71
2022/01/04 14:14:54;;;;;;;50.20;36.17;;;7.50;88.80;;;;;;10980671;32;20019;-72
2022/01/04 14:20:56;;;;;;;46.37;32.22;;;7.50;88.80;;;;;;10984823;32;20026;-72
2022/01/04 14:27:00;;;;;;;39.25;30.05;;;7.50;88.90;;;;;;10984567;32;20022;-72
2022/01/04 14:33:05;;;;;;;62.50;42.45;;;7.50;88.80;;;;;;10984524;32;20019;-72
2022/01/04 14:39:10;;;;;;;60.42;46.78;;;7.50;88.80;;;;;;10984503;32;20011;-71
2022/01/04 14:45:13;;;;;;;53.13;31.42;;;7.50;88.80;;;;;;10984252;32;20030;-71
2022/01/04 14:51:15;;;;;;;43.38;31.92;;;7.50;88.80;;;;;;10983965;32;20327;-69
2022/01/04 14:57:17;;;;;;;58.05;41.58;;;7.50;88.80;;;;;;10983554;32;20014;-69
2022/01/04 15:03:20;;;;;;;58.00;43.83;;;7.40;88.80;;;;;;10983242;32;20023;-71
2022/01/04 15:09:22;;;;;;;40.45;30.12;;;7.40;88.80;;;;;;10969945;32;20088;-71
2022/01/04 15:15:26;;;;;;;54.92;39.05;;;7.40;88.90;;;;;;10983134;32;20015;-71
2022/01/04 15:21:29;;;;;;;46.42;30.37;;;7.40;88.90;;;;;;10968950;32;20023;-71
2022/01/04 15:27:31;;;;;;;41.92;30.98;;;7.40;88.90;;;;;;10982176;32;20081;-71
2022/01/04 15:33:35;;;;;;;41.80;31.10;;;7.40;88.90;;;;;;10982472;32;20399;-71
2022/01/04 15:39:38;;;;;;;38.80;30.27;;;7.40;88.90;;;;;;10981945;32;20015;-71
2022/01/04 15:45:40;;;;;;;36.00;28.05;;;7.40;89.00;;;;;;10968136;32;20034;-71
2022/01/04 15:51:43;;;;;;;46.67;32.70;;;7.40;89.00;;;;;;10978916;32;20045;-69
2022/01/04 15:57:45;;;;;;;37.00;28.80;;;7.40;89.00;;;;;;10981256;32;20026;-69
2022/01/04 16:03:48;;;;;;;36.85;30.12;;;7.40;89.00;;;;;;10978638;32;20014;-69
2022/01/04 16:09:51;;;;;;;35.53;24.08;;;7.30;89.00;;;;;;10968738;32;20312;-70
2022/01/04 16:16:04;;;;;;;37.80;28.92;;;7.40;89.10;;;;;;10927440;32;20399;-70
2022/01/04 16:22:06;;;;;;;40.88;29.63;;;7.40;89.00;;;;;;10941190;32;20053;-70
2022/01/04 16:28:08;;;;;;;31.87;21.62;;;7.40;89.00;;;;;;10941213;32;20372;-70
2022/01/04 16:34:12;;;;;;;39.28;28.73;;;7.40;89.00;;;;;;10942697;32;20041;-70
2022/01/04 16:40:18;;;;;;;46.83;33.33;;;7.40;89.00;;;;;;10928493;32;20015;-70
2022/01/04 16:46:20;;;;;;;40.90;30.33;;;7.40;89.00;;;;;;10941622;32;20027;-70
2022/01/04 16:52:22;;;;;;;45.55;32.45;;;7.30;88.90;;;;;;10942474;32;20042;-70
2022/01/04 16:58:24;;;;;;;35.95;25.27;;;7.30;89.00;;;;;;10942237;32;20323;-70
2022/01/04 17:04:29;;;;;;;40.90;28.40;;;7.30;89.00;;;;;;10940348;32;20045;-70
2022/01/04 17:10:32;;;;;;;48.47;34.28;;;7.30;89.00;;;;;;10940881;32;20413;-69
2022/01/04 17:16:35;;;;;;;83.90;58.97;;;7.30;88.90;;;;;;10939368;32;20399;-70
2022/01/04 17:22:39;;;;;;;56.55;41.05;;;7.30;88.90;;;;;;10948679;32;20430;-72
2022/01/04 17:28:42;;;;;;;35.50;28.05;;;7.30;88.90;;;;;;10968959;32;20085;-72
2022/01/04 17:34:46;;;;;;;68.97;34.75;;;7.30;89.00;;;;;;10975576;32;20041;-73
2022/01/04 17:40:49;;;;;;;59.72;42.30;;;7.30;89.00;;;;;;10978816;32;20003;-72
2022/01/04 17:46:54;;;;;;;72.80;51.88;;;7.30;88.90;;;;;;10958676;27;20035;-71
2022/01/04 17:52:56;;;;;;;59.40;40.90;;;7.20;88.90;;;;;;10948506;32;20035;-71
2022/01/04 17:58:58;;;;;;;37.17;27.48;;;7.30;88.90;;;;;;10948233;32;20038;-72
2022/01/04 18:05:00;;;;;;;71.62;52.47;;;7.30;89.00;;;;;;10947776;32;20351;-71
2022/01/04 18:11:02;;;;;;;64.55;44.17;;;7.20;88.90;;;;;;10947592;32;20085;-71
2022/01/04 18:17:05;;;;;;;75.07;49.38;;;7.30;89.00;;;;;;10947545;32;20041;-70
2022/01/04 18:23:07;;;;;;;69.00;46.75;;;7.20;88.90;;;;;;10947278;32;20045;-70
2022/01/04 18:29:10;;;;;;;60.53;39.75;;;7.20;89.00;;;;;;10943534;32;20030;-70
2022/01/04 18:35:12;;;;;;;74.85;45.63;;;7.20;89.00;;;;;;10947121;32;20027;-70
2022/01/04 18:41:14;;;;;;;55.22;35.15;;;7.30;89.10;;;;;;10944810;32;20035;-70
2022/01/04 18:47:16;;;;;;;61.75;40.83;;;7.30;89.10;;;;;;10942266;32;20027;-69
2022/01/04 18:53:18;;;;;;;54.95;37.08;;;7.30;89.00;;;;;;10946595;32;20297;-69
2022/01/04 18:59:20;;;;;;;47.28;31.15;;;7.30;89.10;;;;;;10945409;32;20030;-69
2022/01/04 19:05:23;;;;;;;52.88;31.90;;;7.30;89.00;;;;;;10945611;32;20066;-69
2022/01/04 19:11:26;;;;;;;40.10;26.25;;;7.30;89.00;;;;;;10942380;32;20065;-69
2022/01/04 19:17:29;;;;;;;54.72;32.20;;;7.30;89.00;;;;;;10952508;32;20061;-69
2022/01/04 19:23:32;;;;;;;43.25;28.20;;;7.30;89.00;;;;;;10964338;32;20022;-71
2022/01/04 19:29:34;;;;;;;62.17;35.45;;;7.30;89.00;;;;;;10982193;32;20042;-71
2022/01/04 19:41:57;;;;;;;53.28;35.88;;;7.20;88.90;;;;;;10943869;32;20058;-69
2022/01/04 19:47:59;;;;;;;38.30;27.13;;;7.20;89.00;;;;;;10944310;32;20408;-69
2022/01/04 19:54:02;;;;;;;43.35;28.05;;;7.20;89.00;;;;;;10957315;32;20030;-71
2022/01/04 20:00:08;;;;;;;64.53;39.65;;;7.20;89.00;;;;;;10981274;32;20048;-71
2022/01/04 20:06:15;;;;;;;39.22;24.48;;;7.30;89.00;;;;;;10981158;32;20027;-71
2022/01/04 20:12:17;;;;;;;34.40;22.15;;;7.20;88.90;;;;;;10980701;32;20035;-71
2022/01/04 20:18:20;;;;;;;35.72;22.98;;;7.30;89.00;;;;;;10967615;32;20037;-71
2022/01/04 20:24:22;;;;;;;33.55;19.33;;;7.30;89.00;;;;;;10967067;32;20031;-71
2022/01/04 20:30:24;;;;;;;57.08;35.33;;;7.30;88.90;;;;;;10976673;32;20019;-71
2022/01/04 20:36:26;;;;;;;44.30;29.10;;;7.30;88.90;;;;;;10980467;32;20050;-71
2022/01/04 20:42:33;;;;;;;70.65;39.65;;;7.30;88.80;;;;;;10966494;32;20301;-71
2022/01/04 20:48:36;;;;;;;39.15;23.90;;;7.20;88.90;;;;;;10978798;32;20052;-70
2022/01/04 20:54:38;;;;;;;34.08;22.65;;;7.20;88.90;;;;;;10979437;32;20257;-70
2022/01/04 21:00:40;;;;;;;35.83;24.42;;;7.30;89.00;;;;;;10960065;32;20437;-69
2022/01/04 21:06:43;;;;;;;28.25;19.45;;;7.20;88.90;;;;;;10945125;32;20042;-69
2022/01/04 21:12:45;;;;;;;25.80;17.60;;;7.30;88.90;;;;;;10941746;32;20354;-69
2022/01/04 21:18:53;;;;;;;39.13;23.15;;;7.30;88.90;;;;;;10941511;32;20034;-69
2022/01/04 21:24:56;;;;;;;33.97;20.40;;;7.30;88.90;;;;;;10933222;32;20015;-69
2022/01/04 21:30:58;;;;;;;35.42;20.58;;;7.30;88.90;;;;;;10949558;32;20023;-69
2022/01/04 21:37:03;;;;;;;30.45;17.23;;;7.30;88.80;;;;;;10945669;32;20061;-69
2022/01/04 21:43:05;;;;;;;41.25;25.83;;;7.30;88.90;;;;;;10948739;32;20031;-69
2022/01/04 21:49:19;;;;;;;25.52;16.40;;;7.30;88.80;;;;;;10948805;32;20019;-69
2022/01/04 21:55:21;;;;;;;24.02;14.07;;;7.30;88.90;;;;;;10948578;32;20019;-69
2022/01/04 22:01:28;;;;;;;33.00;20.20;;;7.30;88.80;;;;;;10948322;32;20023;-69
2022/01/04 22:07:32;;;;;;;28.12;16.40;;;7.30;88.80;;;;;;10945421;32;20035;-69
2022/01/04 22:13:35;;;;;;;28.00;16.58;;;7.30;88.80;;;;;;10947995;32;20018;-69
2022/01/04 22:19:39;;;;;;;20.75;11.93;;;7.30;88.80;;;;;;10947757;32;20023;-69
2022/01/04 22:25:49;;;;;;;38.70;25.85;;;7.30;88.80;;;;;;10943810;32;20050;-69
2022/01/04 22:31:52;;;;;;;22.87;14.98;;;7.30;88.80;;;;;;10932000;32;20035;-69
2022/01/04 22:38:00;;;;;;;30.45;19.60;;;7.30;88.80;;;;;;10945979;32;20026;-69
2022/01/04 22:44:10;;;;;;;18.30;12.32;;;7.30;88.80;;;;;;10947023;32;20045;-69
2022/01/04 22:50:20;;;;;;;23.23;14.73;;;7.30;88.80;;;;;;10946372;32;20433;-69
2022/01/04 22:56:22;;;;;;;29.42;17.37;;;7.30;88.80;;;;;;10946490;32;20442;-69
2022/01/04 23:02:25;;;;;;;31.73;19.08;;;7.30;88.70;;;;;;10946161;32;20049;-69
2022/01/04 23:08:30;;;;;;;23.55;16.60;;;7.20;88.80;;;;;;10946058;32;20035;-69
2022/01/04 23:14:32;;;;;;;31.40;19.55;;;7.30;88.80;;;;;;10945974;32;20042;-69
2022/01/04 23:20:34;;;;;;;25.70;15.98;;;7.30;88.80;;;;;;10932280;32;20027;-69
2022/01/04 23:26:37;;;;;;;16.50;10.45;;;7.20;88.70;;;;;;10945360;32;20023;-69
2022/01/04 23:32:39;;;;;;;30.15;18.92;;;7.20;88.80;;;;;;10945193;32;20049;-69
2022/01/04 23:38:42;;;;;;;24.35;14.68;;;7.20;88.80;;;;;;10931494;32;20023;-69
2022/01/04 23:44:44;;;;;;;27.13;18.33;;;7.20;88.80;;;;;;10944290;32;20027;-69
2022/01/04 23:50:47;;;;;;;22.75;14.27;;;7.20;88.80;;;;;;10944476;32;20396;-69
2022/01/04 23:56:49;;;;;;;18.17;10.07;;;7.20;88.80;;;;;;10941391;32;20030;-69
